createdAt,value
2022-07-29T00:01:50.278Z,2.55
2022-07-29T00:04:17.129Z,2.38
2022-07-29T00:06:43.871Z,1.80
2022-07-29T00:09:10.440Z,2.25
2022-07-29T00:11:36.857Z,2.80
2022-07-29T00:14:03.552Z,2.55
2022-07-29T00:16:30.194Z,2.65
2022-07-29T00:18:59.490Z,2.97
2022-07-29T00:21:28.281Z,2.50
2022-07-29T00:23:54.925Z,2.80
2022-07-29T00:26:21.356Z,2.40
2022-07-29T00:28:47.771Z,2.95
2022-07-29T00:31:14.231Z,2.55
2022-07-29T00:33:40.711Z,2.50
2022-07-29T00:36:07.220Z,2.50
2022-07-29T00:38:33.684Z,2.70
2022-07-29T00:41:00.159Z,3.15
2022-07-29T00:43:26.615Z,3.08
2022-07-29T00:45:53.472Z,2.80
2022-07-29T00:48:19.956Z,3.10
2022-07-29T00:50:46.401Z,3.17
2022-07-29T00:53:12.972Z,3.58
2022-07-29T00:55:39.495Z,2.92
2022-07-29T00:58:05.947Z,3.38
2022-07-29T01:00:32.506Z,3.20
2022-07-29T01:02:59.300Z,3.10
2022-07-29T01:05:48.178Z,2.80
2022-07-29T01:08:16.766Z,2.78
2022-07-29T01:10:44.689Z,2.85
2022-07-29T01:13:11.898Z,3.70
2022-07-29T01:15:50.428Z,3.75
2022-07-29T01:18:29.376Z,3.55
2022-07-29T01:21:24.795Z,3.55
2022-07-29T01:24:27.421Z,3.63
2022-07-29T01:27:04.839Z,3.63
2022-07-29T01:29:40.337Z,4.00
2022-07-29T01:32:27.498Z,3.85
2022-07-29T01:35:18.036Z,4.70
2022-07-29T01:38:06.236Z,4.82
2022-07-29T01:40:40.774Z,4.85
2022-07-29T01:43:12.158Z,4.30
2022-07-29T01:45:42.569Z,4.80
2022-07-29T01:48:16.142Z,5.82
2022-07-29T01:50:49.586Z,4.90
2022-07-29T01:53:38.088Z,4.80
2022-07-29T01:56:07.659Z,4.45
2022-07-29T01:58:37.717Z,4.72
2022-07-29T02:01:06.243Z,4.20
2022-07-29T02:03:36.650Z,4.72
2022-07-29T02:06:05.409Z,4.20
2022-07-29T02:08:33.797Z,4.47
2022-07-29T02:11:02.339Z,5.20
2022-07-29T02:13:30.896Z,4.03
2022-07-29T02:15:59.357Z,4.07
2022-07-29T02:18:28.949Z,4.53
2022-07-29T02:20:57.458Z,4.65
2022-07-29T02:23:24.901Z,4.00
2022-07-29T02:25:55.964Z,4.53
2022-07-29T02:30:56.505Z,4.75
2022-07-29T02:33:25.599Z,4.67
2022-07-29T02:35:53.100Z,4.93
2022-07-29T02:38:39.750Z,4.45
2022-07-29T02:41:12.977Z,4.70
2022-07-29T02:43:41.578Z,4.65
2022-07-29T02:46:29.305Z,4.82
2022-07-29T02:49:01.905Z,4.68
2022-07-29T02:51:44.543Z,4.65
2022-07-29T02:54:17.477Z,4.38
2022-07-29T02:56:46.194Z,5.03
2022-07-29T02:59:14.978Z,4.10
2022-07-29T03:01:44.758Z,4.15
2022-07-29T03:04:14.258Z,4.53
2022-07-29T03:06:41.942Z,4.75
2022-07-29T03:09:13.240Z,4.63
2022-07-29T03:11:49.847Z,5.50
2022-07-29T03:14:20.357Z,5.35
2022-07-29T03:16:47.812Z,4.63
2022-07-29T03:19:14.703Z,4.55
2022-07-29T03:21:41.199Z,4.72
2022-07-29T03:24:10.561Z,4.47
2022-07-29T03:26:37.339Z,4.63
2022-07-29T03:29:03.776Z,3.95
2022-07-29T03:31:30.271Z,4.45
2022-07-29T03:33:56.859Z,4.75
2022-07-29T03:36:23.295Z,4.60
2022-07-29T03:38:50.337Z,4.63
2022-07-29T03:41:22.281Z,4.25
2022-07-29T03:43:52.533Z,4.63
2022-07-29T03:46:21.877Z,3.92
2022-07-29T03:48:51.503Z,4.53
2022-07-29T03:51:18.129Z,4.40
2022-07-29T03:53:45.337Z,4.38
2022-07-29T03:56:17.667Z,4.40
2022-07-29T03:58:45.297Z,4.28
2022-07-29T04:01:12.841Z,4.90
2022-07-29T04:03:40.032Z,4.82
2022-07-29T04:06:07.889Z,4.53
2022-07-29T04:08:35.668Z,4.00
2022-07-29T04:11:03.392Z,4.40
2022-07-29T04:13:29.957Z,3.85
2022-07-29T04:15:56.620Z,4.68
2022-07-29T04:18:23.104Z,4.90
2022-07-29T04:20:49.659Z,3.92
2022-07-29T04:23:16.328Z,4.30
2022-07-29T04:25:43.605Z,4.22
2022-07-29T04:28:10.614Z,4.35
2022-07-29T04:30:38.077Z,4.60
2022-07-29T04:33:07.790Z,4.70
2022-07-29T04:35:43.628Z,4.78
2022-07-29T04:38:19.034Z,4.40
2022-07-29T04:40:45.494Z,4.55
2022-07-29T04:43:14.276Z,4.20
2022-07-29T04:45:42.165Z,4.28
2022-07-29T04:48:08.765Z,3.78
2022-07-29T04:50:35.282Z,4.05
2022-07-29T04:53:01.731Z,4.30
2022-07-29T04:55:28.154Z,4.20
2022-07-29T04:57:54.596Z,4.28
2022-07-29T05:00:21.170Z,4.57
2022-07-29T05:02:47.609Z,3.50
2022-07-29T05:05:14.082Z,4.13
2022-07-29T05:07:41.877Z,3.90
2022-07-29T05:10:09.180Z,3.92
2022-07-29T05:12:35.836Z,3.50
2022-07-29T05:15:02.273Z,4.50
2022-07-29T05:17:28.750Z,3.88
2022-07-29T05:19:55.211Z,4.35
2022-07-29T05:22:22.331Z,4.15
2022-07-29T05:24:48.759Z,4.68
2022-07-29T05:27:15.178Z,4.13
2022-07-29T05:29:43.842Z,4.07
2022-07-29T05:32:12.777Z,4.07
2022-07-29T05:34:50.059Z,3.75
2022-07-29T05:37:19.429Z,3.80
2022-07-29T05:39:48.662Z,5.20
2022-07-29T05:42:17.250Z,5.07
2022-07-29T05:44:43.715Z,4.25
2022-07-29T05:47:10.194Z,4.28
2022-07-29T05:49:36.739Z,3.80
2022-07-29T05:52:03.794Z,4.07
2022-07-29T05:54:30.266Z,3.90
2022-07-29T05:56:56.686Z,3.63
2022-07-29T05:59:27.055Z,3.47
2022-07-29T06:01:57.947Z,3.80
2022-07-29T06:04:24.635Z,3.88
2022-07-29T06:06:51.113Z,3.30
2022-07-29T06:09:17.544Z,3.80
2022-07-29T06:11:44.706Z,3.55
2022-07-29T06:14:11.120Z,3.15
2022-07-29T06:16:37.950Z,3.35
2022-07-29T06:19:05.307Z,2.70
2022-07-29T06:21:31.736Z,3.30
2022-07-29T06:23:58.158Z,3.20
2022-07-29T06:26:30.605Z,3.25
2022-07-29T06:28:57.899Z,3.90
2022-07-29T06:31:24.353Z,3.03
2022-07-29T06:33:50.819Z,3.80
2022-07-29T06:36:17.234Z,3.10
2022-07-29T06:38:49.165Z,3.17
2022-07-29T06:41:17.197Z,3.42
2022-07-29T06:43:52.236Z,3.63
2022-07-29T06:46:22.341Z,3.38
2022-07-29T06:48:49.460Z,3.50
2022-07-29T06:51:17.332Z,3.13
2022-07-29T06:54:00.667Z,3.53
2022-07-29T06:56:30.952Z,3.07
2022-07-29T06:58:57.381Z,3.05
2022-07-29T07:01:23.863Z,3.53
2022-07-29T07:03:50.380Z,3.22
2022-07-29T07:06:17.269Z,3.30
2022-07-29T07:08:43.701Z,2.95
2022-07-29T07:11:10.167Z,3.17
2022-07-29T07:13:36.907Z,3.28
2022-07-29T07:16:04.151Z,2.63
2022-07-29T07:18:30.704Z,2.80
2022-07-29T07:20:58.357Z,2.40
2022-07-29T07:23:25.636Z,3.00
2022-07-29T07:25:52.294Z,2.88
2022-07-29T07:28:18.826Z,3.22
2022-07-29T07:30:51.213Z,3.60
2022-07-29T07:33:17.704Z,3.13
2022-07-29T07:35:45.194Z,3.13
2022-07-29T07:38:11.717Z,2.63
2022-07-29T07:40:38.185Z,3.08
2022-07-29T07:43:04.812Z,2.72
2022-07-29T07:45:33.605Z,2.80
2022-07-29T07:48:00.116Z,2.50
2022-07-29T07:50:26.941Z,2.67
2022-07-29T07:52:56.009Z,3.03
2022-07-29T07:55:22.784Z,3.30
2022-07-29T07:57:49.302Z,3.85
2022-07-29T08:00:17.216Z,2.33
2022-07-29T08:02:44.081Z,3.08
2022-07-29T08:05:12.705Z,2.63
2022-07-29T08:07:39.938Z,2.72
2022-07-29T08:10:06.824Z,2.65
2022-07-29T08:12:33.244Z,2.63
2022-07-29T08:14:59.864Z,2.85
2022-07-29T08:17:27.498Z,2.53
2022-07-29T08:19:53.954Z,2.58
2022-07-29T08:22:20.451Z,2.72
2022-07-29T08:24:53.424Z,2.72
2022-07-29T08:27:42.517Z,2.10
2022-07-29T08:30:08.365Z,2.83
2022-07-29T08:32:52.631Z,2.53
2022-07-29T08:35:21.805Z,2.17
2022-07-29T08:37:48.535Z,2.22
2022-07-29T08:40:15.351Z,2.08
2022-07-29T08:42:41.810Z,2.17
2022-07-29T08:45:08.876Z,2.22
2022-07-29T08:47:39.501Z,2.17
2022-07-29T08:52:36.828Z,2.13
2022-07-29T08:57:30.645Z,2.40
2022-07-29T09:00:06.253Z,2.30
2022-07-29T09:02:41.182Z,2.53
2022-07-29T09:05:08.341Z,2.10
2022-07-29T09:07:35.302Z,2.38
2022-07-29T09:10:02.666Z,2.08
2022-07-29T09:12:33.696Z,2.28
2022-07-29T09:15:02.721Z,2.20
2022-07-29T09:17:46.849Z,1.88
2022-07-29T09:20:16.386Z,2.10
2022-07-29T09:22:43.033Z,2.00
2022-07-29T09:25:12.414Z,2.35
2022-07-29T09:27:39.059Z,2.00
2022-07-29T09:30:08.096Z,2.10
2022-07-29T09:32:55.147Z,2.20
2022-07-29T09:35:24.204Z,2.05
2022-07-29T09:37:50.832Z,2.33
2022-07-29T09:40:22.383Z,2.25
2022-07-29T09:42:49.631Z,2.05
2022-07-29T09:45:33.961Z,2.20
2022-07-29T09:48:14.191Z,2.30
2022-07-29T09:50:42.040Z,2.17
2022-07-29T09:53:10.514Z,2.47
2022-07-29T09:55:49.296Z,1.77
2022-07-29T09:58:20.090Z,1.90
2022-07-29T10:00:47.897Z,2.75
2022-07-29T10:03:16.663Z,2.03
2022-07-29T10:05:44.454Z,1.90
2022-07-29T10:08:13.308Z,2.13
2022-07-29T10:10:42.655Z,2.25
2022-07-29T10:13:15.986Z,2.25
2022-07-29T10:15:45.794Z,2.20
2022-07-29T10:18:14.379Z,1.90
2022-07-29T10:20:41.099Z,2.35
2022-07-29T10:23:07.546Z,1.90
2022-07-29T10:25:34.447Z,2.35
2022-07-29T10:28:00.877Z,2.30
2022-07-29T10:30:27.699Z,2.00
2022-07-29T10:33:18.010Z,1.77
2022-07-29T10:36:09.611Z,2.15
2022-07-29T10:38:52.826Z,2.00
2022-07-29T10:41:46.668Z,1.85
2022-07-29T10:44:23.217Z,1.95
2022-07-29T10:46:52.070Z,2.13
2022-07-29T10:49:27.703Z,1.77
2022-07-29T10:52:12.402Z,1.85
2022-07-29T10:54:42.512Z,2.35
2022-07-29T10:57:53.340Z,2.33
2022-07-29T11:00:17.050Z,2.13
2022-07-29T11:02:45.290Z,2.38
2022-07-29T11:05:20.323Z,2.20
2022-07-29T11:08:20.368Z,1.50
2022-07-29T11:10:48.360Z,2.00
2022-07-29T11:13:44.564Z,1.70
2022-07-29T11:16:13.802Z,1.50
2022-07-29T11:19:14.007Z,2.13
2022-07-29T11:22:00.315Z,1.88
2022-07-29T11:24:30.282Z,2.08
2022-07-29T11:27:17.986Z,2.35
2022-07-29T11:29:56.363Z,1.88
2022-07-29T11:32:25.443Z,2.28
2022-07-29T11:35:17.280Z,1.77
2022-07-29T11:37:52.801Z,2.00
2022-07-29T11:40:24.651Z,2.20
2022-07-29T11:42:51.862Z,2.10
2022-07-29T11:45:43.218Z,2.47
2022-07-29T11:48:29.494Z,2.28
2022-07-29T11:50:54.712Z,2.40
2022-07-29T11:53:21.831Z,2.30
2022-07-29T11:55:56.131Z,2.35
2022-07-29T11:58:26.156Z,2.42
2022-07-29T12:00:53.185Z,2.28
2022-07-29T12:03:33.028Z,2.22
2022-07-29T12:06:02.935Z,2.67
2022-07-29T12:08:30.686Z,2.60
2022-07-29T12:10:57.201Z,2.60
2022-07-29T12:13:31.212Z,2.47
2022-07-29T12:16:04.791Z,2.63
2022-07-29T12:18:31.954Z,2.45
2022-07-29T12:21:03.439Z,2.75
2022-07-29T12:23:34.409Z,2.75
2022-07-29T12:26:04.455Z,2.30
2022-07-29T12:28:30.924Z,3.08
2022-07-29T12:30:57.519Z,2.58
2022-07-29T12:33:28.418Z,2.90
2022-07-29T12:36:06.310Z,2.63
2022-07-29T12:38:35.954Z,2.42
2022-07-29T12:41:04.436Z,2.85
2022-07-29T12:43:31.333Z,3.38
2022-07-29T12:45:58.474Z,3.03
2022-07-29T12:48:35.449Z,2.75
2022-07-29T12:51:03.284Z,3.30
2022-07-29T12:53:30.171Z,3.13
2022-07-29T12:56:00.462Z,2.90
2022-07-29T12:58:31.401Z,4.10
2022-07-29T13:01:07.168Z,3.00
2022-07-29T13:03:56.867Z,3.42
2022-07-29T13:06:31.570Z,2.80
2022-07-29T13:09:04.754Z,3.13
2022-07-29T13:11:35.299Z,3.10
2022-07-29T13:14:06.816Z,2.85
2022-07-29T13:16:33.815Z,2.80
2022-07-29T13:19:12.244Z,2.67
2022-07-29T13:21:39.815Z,2.92
2022-07-29T13:24:07.936Z,2.53
2022-07-29T13:26:34.523Z,3.38
2022-07-29T13:29:01.204Z,2.60
2022-07-29T13:31:27.746Z,3.08
2022-07-29T13:33:54.230Z,3.33
2022-07-29T13:36:21.348Z,3.40
2022-07-29T13:38:47.818Z,2.65
2022-07-29T13:41:14.294Z,3.30
2022-07-29T13:43:40.755Z,3.08
2022-07-29T13:46:07.280Z,2.70
2022-07-29T13:48:33.828Z,3.25
2022-07-29T13:51:00.271Z,2.78
2022-07-29T13:53:27.377Z,3.65
2022-07-29T13:55:54.143Z,2.85
2022-07-29T13:58:20.577Z,3.45
2022-07-29T14:00:47.632Z,3.35
2022-07-29T14:03:14.058Z,2.78
2022-07-29T14:05:40.487Z,2.97
2022-07-29T14:08:06.918Z,2.90
2022-07-29T14:10:43.783Z,3.40
2022-07-29T14:13:24.449Z,3.40
2022-07-29T14:15:51.906Z,2.90
2022-07-29T14:18:18.326Z,2.97
2022-07-29T14:20:44.847Z,3.15
2022-07-29T14:23:11.307Z,3.00
2022-07-29T14:25:40.747Z,3.00
2022-07-29T14:28:08.509Z,3.60
2022-07-29T14:30:34.948Z,2.83
2022-07-29T14:33:01.442Z,3.53
2022-07-29T14:35:27.898Z,2.85
2022-07-29T14:37:54.415Z,2.97
2022-07-29T14:40:21.043Z,2.83
2022-07-29T14:42:47.584Z,3.20
2022-07-29T14:45:14.017Z,3.05
2022-07-29T14:47:41.187Z,2.90
2022-07-29T14:50:08.662Z,3.45
2022-07-29T14:52:35.854Z,3.35
2022-07-29T14:55:02.875Z,2.45
2022-07-29T14:57:29.494Z,3.13
2022-07-29T14:59:56.327Z,2.40
2022-07-29T15:02:25.637Z,3.05
2022-07-29T15:05:02.028Z,3.05
2022-07-29T15:07:28.972Z,3.28
2022-07-29T15:09:59.524Z,3.08
2022-07-29T15:12:26.322Z,2.83
2022-07-29T15:14:52.820Z,2.92
2022-07-29T15:17:19.280Z,3.13
2022-07-29T15:19:45.764Z,2.88
2022-07-29T15:22:12.194Z,2.55
2022-07-29T15:24:38.603Z,2.97
2022-07-29T15:27:05.114Z,2.60
2022-07-29T15:29:31.660Z,3.60
2022-07-29T15:31:58.371Z,3.95
2022-07-29T15:34:24.945Z,2.92
2022-07-29T15:36:53.347Z,3.30
2022-07-29T15:39:21.733Z,2.47
2022-07-29T15:41:48.276Z,3.40
2022-07-29T15:44:14.693Z,2.95
2022-07-29T15:47:00.244Z,3.08
2022-07-29T15:49:47.555Z,2.90
2022-07-29T15:52:17.819Z,2.92
2022-07-29T15:54:44.347Z,2.78
2022-07-29T15:57:10.797Z,3.10
2022-07-29T15:59:37.440Z,2.85
2022-07-29T16:02:04.191Z,2.70
2022-07-29T16:04:31.934Z,3.03
2022-07-29T16:06:58.775Z,3.13
2022-07-29T16:09:26.450Z,2.70
2022-07-29T16:11:54.009Z,2.65
2022-07-29T16:14:20.571Z,2.70
2022-07-29T16:16:47.581Z,2.80
2022-07-29T16:19:14.550Z,2.90
2022-07-29T16:21:41.011Z,3.30
2022-07-29T16:24:08.004Z,2.88
2022-07-29T16:26:35.067Z,3.42
2022-07-29T16:29:01.943Z,3.03
2022-07-29T16:31:28.400Z,3.17
2022-07-29T16:33:56.045Z,3.42
2022-07-29T16:36:23.171Z,2.92
2022-07-29T16:38:50.343Z,3.25
2022-07-29T16:41:16.746Z,3.30
2022-07-29T16:43:43.166Z,2.78
2022-07-29T16:46:11.177Z,3.17
2022-07-29T16:48:45.332Z,2.67
2022-07-29T16:51:12.018Z,3.47
2022-07-29T16:53:41.190Z,2.97
2022-07-29T16:56:07.598Z,3.08
2022-07-29T17:01:09.954Z,2.90
2022-07-29T17:03:36.433Z,4.25
2022-07-29T17:06:02.897Z,2.88
2022-07-29T17:08:29.314Z,2.78
2022-07-29T17:10:55.965Z,2.90
2022-07-29T17:13:22.387Z,2.78
2022-07-29T17:15:48.912Z,2.88
2022-07-29T17:18:15.426Z,2.72
2022-07-29T17:20:42.077Z,3.40
2022-07-29T17:23:08.713Z,2.70
2022-07-29T17:25:35.288Z,3.13
2022-07-29T17:28:01.724Z,2.88
2022-07-29T17:30:29.193Z,2.13
2022-07-29T17:32:55.769Z,3.22
2022-07-29T17:35:41.032Z,2.38
2022-07-29T17:38:07.479Z,3.03
2022-07-29T17:40:33.902Z,2.47
2022-07-29T17:43:00.337Z,2.47
2022-07-29T17:45:48.935Z,2.60
2022-07-29T17:48:13.776Z,2.60
2022-07-29T17:50:40.223Z,3.35
2022-07-29T17:53:09.607Z,3.13
2022-07-29T17:55:45.182Z,2.78
2022-07-29T17:58:11.764Z,3.20
2022-07-29T18:00:38.265Z,2.38
2022-07-29T18:03:04.751Z,2.85
2022-07-29T18:05:31.282Z,2.63
2022-07-29T18:07:57.877Z,2.72
2022-07-29T18:10:24.358Z,2.72
2022-07-29T18:12:52.370Z,3.38
2022-07-29T18:15:18.825Z,2.90
2022-07-29T18:17:56.580Z,2.97
2022-07-29T18:20:25.084Z,2.78
2022-07-29T18:22:51.545Z,2.55
2022-07-29T18:25:18.170Z,2.40
2022-07-29T18:27:45.094Z,2.28
2022-07-29T18:30:11.599Z,2.30
2022-07-29T18:32:38.034Z,2.42
2022-07-29T18:35:05.782Z,2.58
2022-07-29T18:38:01.135Z,3.10
2022-07-29T18:40:20.922Z,2.33
2022-07-29T18:42:47.638Z,2.13
2022-07-29T18:45:19.488Z,2.60
2022-07-29T18:47:47.549Z,2.55
2022-07-29T18:50:14.629Z,2.67
2022-07-29T18:52:41.200Z,2.80
2022-07-29T18:55:08.434Z,2.83
2022-07-29T18:57:54.524Z,2.13
2022-07-29T19:00:22.475Z,2.90
2022-07-29T19:02:49.275Z,2.72
2022-07-29T19:05:15.811Z,2.33
2022-07-29T19:07:42.247Z,3.22
2022-07-29T19:10:09.089Z,2.33
2022-07-29T19:12:35.582Z,2.40
2022-07-29T19:15:03.042Z,2.13
2022-07-29T19:17:29.468Z,2.88
2022-07-29T19:19:56.038Z,1.90
2022-07-29T19:22:22.823Z,2.28
2022-07-29T19:24:50.249Z,2.60
2022-07-29T19:27:17.449Z,2.53
2022-07-29T19:29:44.359Z,2.30
2022-07-29T19:32:10.942Z,2.67
2022-07-29T19:34:37.516Z,2.78
2022-07-29T19:37:04.117Z,2.47
2022-07-29T19:39:35.001Z,2.20
2022-07-29T19:42:03.551Z,2.47
2022-07-29T19:44:30.198Z,2.63
2022-07-29T19:46:56.987Z,2.47
2022-07-29T19:49:23.709Z,2.28
2022-07-29T19:51:50.246Z,3.03
2022-07-29T19:54:20.007Z,2.55
2022-07-29T19:56:46.447Z,2.35
2022-07-29T19:59:12.901Z,2.63
2022-07-29T20:01:39.544Z,2.72
2022-07-29T20:04:06.038Z,2.53
2022-07-29T20:06:32.575Z,2.00
2022-07-29T20:08:59.198Z,2.53
2022-07-29T20:11:26.564Z,2.47
2022-07-29T20:13:53.008Z,2.60
2022-07-29T20:16:19.511Z,2.20
2022-07-29T20:18:45.993Z,3.50
2022-07-29T20:21:12.420Z,2.58
2022-07-29T20:23:38.923Z,2.60
2022-07-29T20:26:09.288Z,2.35
2022-07-29T20:28:36.163Z,3.40
2022-07-29T20:31:02.779Z,2.30
2022-07-29T20:33:29.344Z,2.40
2022-07-29T20:35:56.621Z,2.90
2022-07-29T20:38:23.083Z,3.42
2022-07-29T20:40:50.698Z,2.70
2022-07-29T20:43:17.141Z,2.53
2022-07-29T20:45:43.563Z,2.88
2022-07-29T20:48:10.562Z,3.15
2022-07-29T20:50:37.024Z,2.55
2022-07-29T20:53:03.487Z,3.53
2022-07-29T20:55:29.963Z,2.67
2022-07-29T20:57:56.401Z,2.47
2022-07-29T21:00:22.916Z,2.63
2022-07-29T21:02:49.427Z,2.90
2022-07-29T21:05:16.036Z,2.47
2022-07-29T21:07:42.562Z,2.63
2022-07-29T21:10:09.398Z,3.00
2022-07-29T21:12:35.830Z,2.70
2022-07-29T21:15:06.235Z,3.20
2022-07-29T21:17:38.951Z,2.45
2022-07-29T21:20:08.485Z,2.40
2022-07-29T21:22:34.983Z,2.53
2022-07-29T21:25:01.643Z,2.75
2022-07-29T21:27:46.619Z,2.63
2022-07-29T21:30:13.053Z,2.55
2022-07-29T21:32:39.530Z,2.40
2022-07-29T21:35:14.508Z,2.75
2022-07-29T21:37:52.672Z,2.67
2022-07-29T21:40:19.091Z,3.17
2022-07-29T21:42:45.624Z,2.33
2022-07-29T21:45:13.422Z,2.45
2022-07-29T21:47:39.863Z,2.58
2022-07-29T21:50:06.646Z,2.92
2022-07-29T21:52:33.152Z,2.30
2022-07-29T21:54:59.600Z,2.25
2022-07-29T21:57:26.522Z,2.58
2022-07-29T21:59:53.039Z,2.35
2022-07-29T22:02:19.462Z,2.90
2022-07-29T22:04:45.965Z,2.70
2022-07-29T22:07:12.424Z,2.42
2022-07-29T22:09:38.841Z,2.55
2022-07-29T22:12:05.653Z,2.60
2022-07-29T22:14:32.082Z,2.67
2022-07-29T22:16:59.549Z,2.40
2022-07-29T22:19:27.514Z,2.83
2022-07-29T22:21:55.424Z,2.42
2022-07-29T22:24:21.875Z,2.40
2022-07-29T22:26:48.328Z,2.60
2022-07-29T22:29:17.593Z,2.42
2022-07-29T22:31:44.655Z,2.83
2022-07-29T22:34:13.340Z,2.80
2022-07-29T22:36:41.000Z,2.30
2022-07-29T22:39:07.520Z,2.53
2022-07-29T22:41:33.936Z,2.10
2022-07-29T22:44:00.407Z,3.08
2022-07-29T22:46:26.884Z,2.40
2022-07-29T22:48:53.362Z,2.58
2022-07-29T22:51:19.848Z,2.55
2022-07-29T22:53:46.942Z,2.20
2022-07-29T22:56:13.594Z,2.65
2022-07-29T22:58:40.051Z,2.50
2022-07-29T23:01:06.490Z,2.55
2022-07-29T23:03:33.015Z,2.67
2022-07-29T23:05:59.467Z,2.22
2022-07-29T23:08:26.099Z,2.72
2022-07-29T23:10:52.529Z,2.67
2022-07-29T23:13:18.962Z,2.78
2022-07-29T23:15:45.515Z,2.03
2022-07-29T23:18:12.219Z,2.53
2022-07-29T23:20:38.868Z,2.63
2022-07-29T23:23:05.317Z,2.38
2022-07-29T23:25:32.095Z,2.85
2022-07-29T23:27:58.529Z,2.20
2022-07-29T23:30:25.061Z,2.70
2022-07-29T23:32:51.678Z,2.15
2022-07-29T23:35:18.424Z,2.58
2022-07-29T23:37:46.132Z,2.55
2022-07-29T23:40:14.743Z,2.88
2022-07-29T23:42:42.285Z,2.33
2022-07-29T23:45:09.892Z,2.58
2022-07-29T23:47:36.303Z,2.40
2022-07-29T23:50:02.743Z,2.50
2022-07-29T23:52:29.271Z,2.70
2022-07-29T23:54:55.743Z,2.38
2022-07-29T23:57:42.190Z,2.30
